sensor_id;sensor_type;location;lat;lon;timestamp;P1;durP1;ratioP1;P2;durP2;ratioP2
71513;SDS011;59335;46.652;21.272;2022-12-07T00:00:50;12.38;;;7.70;;
71513;SDS011;59335;46.652;21.272;2022-12-07T00:03:54;12.15;;;7.57;;
71513;SDS011;59335;46.652;21.272;2022-12-07T00:07:02;10.52;;;7.57;;
71513;SDS011;59335;46.652;21.272;2022-12-07T00:10:06;13.32;;;8.25;;
71513;SDS011;59335;46.652;21.272;2022-12-07T00:13:09;10.53;;;7.63;;
71513;SDS011;59335;46.652;21.272;2022-12-07T00:16:13;11.48;;;7.38;;
71513;SDS011;59335;46.652;21.272;2022-12-07T00:19:17;12.90;;;8.00;;
71513;SDS011;59335;46.652;21.272;2022-12-07T00:22:21;11.55;;;7.63;;
71513;SDS011;59335;46.652;21.272;2022-12-07T00:25:24;10.80;;;7.28;;
71513;SDS011;59335;46.652;21.272;2022-12-07T00:28:28;12.53;;;7.87;;
71513;SDS011;59335;46.652;21.272;2022-12-07T00:31:32;10.93;;;7.20;;
71513;SDS011;59335;46.652;21.272;2022-12-07T00:34:37;13.70;;;7.43;;
71513;SDS011;59335;46.652;21.272;2022-12-07T00:37:40;11.18;;;6.82;;
71513;SDS011;59335;46.652;21.272;2022-12-07T00:40:43;12.05;;;6.85;;
71513;SDS011;59335;46.652;21.272;2022-12-07T00:43:45;13.37;;;7.47;;
71513;SDS011;59335;46.652;21.272;2022-12-07T00:46:49;12.20;;;7.10;;
71513;SDS011;59335;46.652;21.272;2022-12-07T00:49:52;11.68;;;7.22;;
71513;SDS011;59335;46.652;21.272;2022-12-07T00:52:55;12.25;;;7.43;;
71513;SDS011;59335;46.652;21.272;2022-12-07T00:55:57;11.20;;;7.03;;
71513;SDS011;59335;46.652;21.272;2022-12-07T00:59:01;11.27;;;7.33;;
71513;SDS011;59335;46.652;21.272;2022-12-07T01:02:05;11.27;;;6.55;;
71513;SDS011;59335;46.652;21.272;2022-12-07T01:05:08;12.60;;;7.78;;
71513;SDS011;59335;46.652;21.272;2022-12-07T01:08:11;10.55;;;7.03;;
71513;SDS011;59335;46.652;21.272;2022-12-07T01:11:15;11.45;;;7.18;;
71513;SDS011;59335;46.652;21.272;2022-12-07T01:14:20;11.57;;;7.00;;
71513;SDS011;59335;46.652;21.272;2022-12-07T01:17:23;11.30;;;7.18;;
71513;SDS011;59335;46.652;21.272;2022-12-07T01:20:26;11.35;;;6.93;;
71513;SDS011;59335;46.652;21.272;2022-12-07T01:23:30;10.93;;;7.18;;
71513;SDS011;59335;46.652;21.272;2022-12-07T01:26:33;11.65;;;6.88;;
71513;SDS011;59335;46.652;21.272;2022-12-07T01:29:35;10.43;;;6.60;;
71513;SDS011;59335;46.652;21.272;2022-12-07T01:32:38;10.70;;;6.43;;
71513;SDS011;59335;46.652;21.272;2022-12-07T01:35:41;10.63;;;6.45;;
71513;SDS011;59335;46.652;21.272;2022-12-07T01:38:44;10.88;;;6.68;;
71513;SDS011;59335;46.652;21.272;2022-12-07T01:41:48;11.02;;;6.28;;
71513;SDS011;59335;46.652;21.272;2022-12-07T01:48:32;10.38;;;6.13;;
71513;SDS011;59335;46.652;21.272;2022-12-07T01:51:39;10.15;;;7.03;;
71513;SDS011;59335;46.652;21.272;2022-12-07T01:54:44;11.23;;;6.60;;
71513;SDS011;59335;46.652;21.272;2022-12-07T01:57:50;9.20;;;6.40;;
71513;SDS011;59335;46.652;21.272;2022-12-07T02:00:55;10.97;;;6.93;;
71513;SDS011;59335;46.652;21.272;2022-12-07T02:03:58;8.90;;;5.90;;
71513;SDS011;59335;46.652;21.272;2022-12-07T02:07:01;10.25;;;6.60;;
71513;SDS011;59335;46.652;21.272;2022-12-07T02:10:12;10.93;;;6.35;;
71513;SDS011;59335;46.652;21.272;2022-12-07T02:13:24;10.18;;;6.30;;
71513;SDS011;59335;46.652;21.272;2022-12-07T02:26:41;10.20;;;6.07;;
71513;SDS011;59335;46.652;21.272;2022-12-07T02:33:12;9.20;;;5.93;;
71513;SDS011;59335;46.652;21.272;2022-12-07T02:36:21;10.40;;;6.43;;
71513;SDS011;59335;46.652;21.272;2022-12-07T02:39:46;9.82;;;6.30;;
71513;SDS011;59335;46.652;21.272;2022-12-07T02:43:01;10.82;;;6.85;;
71513;SDS011;59335;46.652;21.272;2022-12-07T02:46:32;10.05;;;6.28;;
71513;SDS011;59335;46.652;21.272;2022-12-07T02:49:38;9.13;;;5.97;;
71513;SDS011;59335;46.652;21.272;2022-12-07T02:52:43;10.23;;;6.00;;
71513;SDS011;59335;46.652;21.272;2022-12-07T02:55:46;9.68;;;6.45;;
71513;SDS011;59335;46.652;21.272;2022-12-07T03:02:28;9.77;;;6.30;;
71513;SDS011;59335;46.652;21.272;2022-12-07T03:09:27;9.43;;;6.10;;
71513;SDS011;59335;46.652;21.272;2022-12-07T03:19:12;9.35;;;5.63;;
71513;SDS011;59335;46.652;21.272;2022-12-07T03:22:19;9.70;;;6.00;;
71513;SDS011;59335;46.652;21.272;2022-12-07T03:25:24;9.10;;;5.93;;
71513;SDS011;59335;46.652;21.272;2022-12-07T03:28:33;9.60;;;5.63;;
71513;SDS011;59335;46.652;21.272;2022-12-07T03:31:41;9.20;;;5.80;;
71513;SDS011;59335;46.652;21.272;2022-12-07T03:34:49;9.27;;;5.47;;
71513;SDS011;59335;46.652;21.272;2022-12-07T03:38:01;8.70;;;5.53;;
71513;SDS011;59335;46.652;21.272;2022-12-07T03:41:33;8.35;;;5.10;;
71513;SDS011;59335;46.652;21.272;2022-12-07T03:44:45;8.85;;;5.40;;
71513;SDS011;59335;46.652;21.272;2022-12-07T03:48:02;9.05;;;5.32;;
71513;SDS011;59335;46.652;21.272;2022-12-07T03:54:36;9.33;;;5.40;;
71513;SDS011;59335;46.652;21.272;2022-12-07T03:57:43;8.10;;;5.40;;
71513;SDS011;59335;46.652;21.272;2022-12-07T04:00:50;8.43;;;5.57;;
71513;SDS011;59335;46.652;21.272;2022-12-07T04:03:53;9.25;;;5.82;;
71513;SDS011;59335;46.652;21.272;2022-12-07T04:06:56;9.07;;;6.07;;
71513;SDS011;59335;46.652;21.272;2022-12-07T04:10:00;8.63;;;5.40;;
71513;SDS011;59335;46.652;21.272;2022-12-07T04:13:04;8.43;;;5.47;;
71513;SDS011;59335;46.652;21.272;2022-12-07T04:16:06;9.50;;;6.00;;
71513;SDS011;59335;46.652;21.272;2022-12-07T04:19:12;9.95;;;6.05;;
71513;SDS011;59335;46.652;21.272;2022-12-07T04:22:15;8.75;;;5.25;;
71513;SDS011;59335;46.652;21.272;2022-12-07T04:25:17;8.43;;;5.30;;
71513;SDS011;59335;46.652;21.272;2022-12-07T04:28:20;10.50;;;5.90;;
71513;SDS011;59335;46.652;21.272;2022-12-07T04:31:23;9.38;;;5.55;;
71513;SDS011;59335;46.652;21.272;2022-12-07T04:34:26;8.63;;;5.43;;
71513;SDS011;59335;46.652;21.272;2022-12-07T04:37:28;9.15;;;5.60;;
71513;SDS011;59335;46.652;21.272;2022-12-07T04:40:33;9.90;;;5.50;;
71513;SDS011;59335;46.652;21.272;2022-12-07T04:43:36;9.60;;;5.68;;
71513;SDS011;59335;46.652;21.272;2022-12-07T04:46:39;9.20;;;5.68;;
71513;SDS011;59335;46.652;21.272;2022-12-07T04:49:43;9.38;;;5.13;;
71513;SDS011;59335;46.652;21.272;2022-12-07T04:52:45;9.80;;;6.10;;
71513;SDS011;59335;46.652;21.272;2022-12-07T04:55:49;8.60;;;5.60;;
71513;SDS011;59335;46.652;21.272;2022-12-07T04:58:52;9.38;;;5.90;;
71513;SDS011;59335;46.652;21.272;2022-12-07T05:01:56;9.25;;;5.78;;
71513;SDS011;59335;46.652;21.272;2022-12-07T05:04:59;9.73;;;5.88;;
71513;SDS011;59335;46.652;21.272;2022-12-07T05:08:01;9.25;;;5.80;;
71513;SDS011;59335;46.652;21.272;2022-12-07T05:11:05;8.27;;;5.40;;
71513;SDS011;59335;46.652;21.272;2022-12-07T05:17:18;8.85;;;5.45;;
71513;SDS011;59335;46.652;21.272;2022-12-07T05:20:21;8.07;;;5.43;;
71513;SDS011;59335;46.652;21.272;2022-12-07T05:23:24;7.80;;;5.03;;
71513;SDS011;59335;46.652;21.272;2022-12-07T05:26:28;8.37;;;5.40;;
71513;SDS011;59335;46.652;21.272;2022-12-07T05:29:33;8.68;;;5.30;;
71513;SDS011;59335;46.652;21.272;2022-12-07T05:32:35;9.20;;;5.72;;
71513;SDS011;59335;46.652;21.272;2022-12-07T05:35:38;9.05;;;5.18;;
71513;SDS011;59335;46.652;21.272;2022-12-07T05:38:41;8.77;;;5.90;;
71513;SDS011;59335;46.652;21.272;2022-12-07T05:41:44;8.37;;;5.03;;
71513;SDS011;59335;46.652;21.272;2022-12-07T05:45:05;8.80;;;5.57;;
71513;SDS011;59335;46.652;21.272;2022-12-07T05:48:09;9.38;;;5.50;;
71513;SDS011;59335;46.652;21.272;2022-12-07T05:51:12;8.85;;;5.38;;
71513;SDS011;59335;46.652;21.272;2022-12-07T05:54:14;9.27;;;5.07;;
71513;SDS011;59335;46.652;21.272;2022-12-07T05:57:17;11.17;;;5.47;;
71513;SDS011;59335;46.652;21.272;2022-12-07T06:00:20;8.43;;;5.25;;
71513;SDS011;59335;46.652;21.272;2022-12-07T06:03:23;9.18;;;5.43;;
71513;SDS011;59335;46.652;21.272;2022-12-07T06:06:26;9.40;;;5.22;;
71513;SDS011;59335;46.652;21.272;2022-12-07T06:09:29;7.65;;;5.10;;
71513;SDS011;59335;46.652;21.272;2022-12-07T06:12:32;9.10;;;5.07;;
71513;SDS011;59335;46.652;21.272;2022-12-07T06:15:38;10.13;;;5.38;;
71513;SDS011;59335;46.652;21.272;2022-12-07T06:18:41;9.30;;;5.15;;
71513;SDS011;59335;46.652;21.272;2022-12-07T06:21:44;9.30;;;5.63;;
71513;SDS011;59335;46.652;21.272;2022-12-07T06:24:46;8.77;;;5.40;;
71513;SDS011;59335;46.652;21.272;2022-12-07T06:27:50;9.27;;;5.17;;
71513;SDS011;59335;46.652;21.272;2022-12-07T06:30:58;7.95;;;5.00;;
71513;SDS011;59335;46.652;21.272;2022-12-07T06:34:04;8.82;;;5.47;;
71513;SDS011;59335;46.652;21.272;2022-12-07T06:37:08;10.68;;;5.43;;
71513;SDS011;59335;46.652;21.272;2022-12-07T06:40:11;9.43;;;5.57;;
71513;SDS011;59335;46.652;21.272;2022-12-07T06:43:14;8.23;;;5.07;;
71513;SDS011;59335;46.652;21.272;2022-12-07T06:46:19;9.32;;;5.10;;
71513;SDS011;59335;46.652;21.272;2022-12-07T06:49:29;9.80;;;5.47;;
71513;SDS011;59335;46.652;21.272;2022-12-07T06:52:34;9.88;;;5.25;;
71513;SDS011;59335;46.652;21.272;2022-12-07T06:55:40;9.80;;;4.90;;
71513;SDS011;59335;46.652;21.272;2022-12-07T06:58:46;9.67;;;5.00;;
71513;SDS011;59335;46.652;21.272;2022-12-07T07:01:50;9.02;;;5.07;;
71513;SDS011;59335;46.652;21.272;2022-12-07T07:04:53;9.43;;;5.15;;
71513;SDS011;59335;46.652;21.272;2022-12-07T07:07:58;9.25;;;4.72;;
71513;SDS011;59335;46.652;21.272;2022-12-07T07:11:22;9.15;;;5.15;;
71513;SDS011;59335;46.652;21.272;2022-12-07T07:14:24;7.77;;;4.90;;
71513;SDS011;59335;46.652;21.272;2022-12-07T07:17:27;9.57;;;5.28;;
71513;SDS011;59335;46.652;21.272;2022-12-07T07:20:31;8.68;;;4.90;;
71513;SDS011;59335;46.652;21.272;2022-12-07T07:23:35;8.27;;;4.68;;
71513;SDS011;59335;46.652;21.272;2022-12-07T07:26:41;10.43;;;5.00;;
71513;SDS011;59335;46.652;21.272;2022-12-07T07:29:46;11.13;;;4.97;;
71513;SDS011;59335;46.652;21.272;2022-12-07T07:32:48;7.85;;;4.50;;
71513;SDS011;59335;46.652;21.272;2022-12-07T07:35:52;8.25;;;5.05;;
71513;SDS011;59335;46.652;21.272;2022-12-07T07:38:55;9.35;;;5.55;;
71513;SDS011;59335;46.652;21.272;2022-12-07T07:41:59;8.35;;;4.95;;
71513;SDS011;59335;46.652;21.272;2022-12-07T07:45:02;7.63;;;4.40;;
71513;SDS011;59335;46.652;21.272;2022-12-07T07:48:08;8.27;;;4.68;;
71513;SDS011;59335;46.652;21.272;2022-12-07T07:51:10;9.35;;;4.90;;
71513;SDS011;59335;46.652;21.272;2022-12-07T07:54:13;11.35;;;5.60;;
71513;SDS011;59335;46.652;21.272;2022-12-07T07:57:18;11.68;;;5.32;;
71513;SDS011;59335;46.652;21.272;2022-12-07T08:00:21;9.07;;;5.17;;
71513;SDS011;59335;46.652;21.272;2022-12-07T08:03:24;11.40;;;5.35;;
71513;SDS011;59335;46.652;21.272;2022-12-07T08:06:28;8.70;;;5.13;;
71513;SDS011;59335;46.652;21.272;2022-12-07T08:09:33;10.63;;;5.05;;
71513;SDS011;59335;46.652;21.272;2022-12-07T08:12:38;11.98;;;5.22;;
71513;SDS011;59335;46.652;21.272;2022-12-07T08:16:06;7.30;;;4.60;;
71513;SDS011;59335;46.652;21.272;2022-12-07T08:19:13;8.70;;;4.90;;
71513;SDS011;59335;46.652;21.272;2022-12-07T08:22:19;11.10;;;5.32;;
71513;SDS011;59335;46.652;21.272;2022-12-07T08:25:24;7.57;;;4.68;;
71513;SDS011;59335;46.652;21.272;2022-12-07T08:28:28;8.65;;;5.15;;
71513;SDS011;59335;46.652;21.272;2022-12-07T08:31:32;9.37;;;5.13;;
71513;SDS011;59335;46.652;21.272;2022-12-07T08:34:36;7.90;;;4.55;;
71513;SDS011;59335;46.652;21.272;2022-12-07T08:37:39;8.45;;;5.20;;
71513;SDS011;59335;46.652;21.272;2022-12-07T08:40:42;7.40;;;4.97;;
71513;SDS011;59335;46.652;21.272;2022-12-07T08:43:47;11.85;;;5.05;;
71513;SDS011;59335;46.652;21.272;2022-12-07T08:46:52;9.50;;;4.87;;
71513;SDS011;59335;46.652;21.272;2022-12-07T08:50:01;10.82;;;5.28;;
71513;SDS011;59335;46.652;21.272;2022-12-07T08:53:06;9.75;;;5.22;;
71513;SDS011;59335;46.652;21.272;2022-12-07T08:56:09;9.30;;;5.00;;
71513;SDS011;59335;46.652;21.272;2022-12-07T08:59:15;11.65;;;5.43;;
71513;SDS011;59335;46.652;21.272;2022-12-07T09:02:23;9.37;;;5.17;;
71513;SDS011;59335;46.652;21.272;2022-12-07T09:05:29;12.00;;;5.50;;
71513;SDS011;59335;46.652;21.272;2022-12-07T09:08:36;10.23;;;5.35;;
71513;SDS011;59335;46.652;21.272;2022-12-07T09:11:43;12.50;;;4.95;;
71513;SDS011;59335;46.652;21.272;2022-12-07T09:14:49;11.05;;;5.40;;
71513;SDS011;59335;46.652;21.272;2022-12-07T09:17:52;8.87;;;4.80;;
71513;SDS011;59335;46.652;21.272;2022-12-07T09:20:55;7.85;;;5.00;;
71513;SDS011;59335;46.652;21.272;2022-12-07T09:23:59;10.75;;;5.50;;
71513;SDS011;59335;46.652;21.272;2022-12-07T09:27:06;10.00;;;5.53;;
71513;SDS011;59335;46.652;21.272;2022-12-07T09:30:10;9.93;;;5.15;;
71513;SDS011;59335;46.652;21.272;2022-12-07T09:33:12;10.77;;;5.60;;
71513;SDS011;59335;46.652;21.272;2022-12-07T09:36:31;9.18;;;4.90;;
71513;SDS011;59335;46.652;21.272;2022-12-07T09:39:34;9.63;;;5.15;;
71513;SDS011;59335;46.652;21.272;2022-12-07T09:42:38;9.32;;;5.13;;
71513;SDS011;59335;46.652;21.272;2022-12-07T09:45:49;13.85;;;5.60;;
71513;SDS011;59335;46.652;21.272;2022-12-07T09:48:56;10.27;;;5.43;;
71513;SDS011;59335;46.652;21.272;2022-12-07T09:55:29;10.43;;;5.47;;
71513;SDS011;59335;46.652;21.272;2022-12-07T09:58:33;13.55;;;5.43;;
71513;SDS011;59335;46.652;21.272;2022-12-07T10:01:37;13.98;;;6.35;;
71513;SDS011;59335;46.652;21.272;2022-12-07T10:04:41;11.03;;;5.77;;
71513;SDS011;59335;46.652;21.272;2022-12-07T10:07:46;11.65;;;6.00;;
71513;SDS011;59335;46.652;21.272;2022-12-07T10:10:53;11.80;;;5.85;;
71513;SDS011;59335;46.652;21.272;2022-12-07T10:14:10;12.60;;;5.88;;
71513;SDS011;59335;46.652;21.272;2022-12-07T10:20:48;12.63;;;5.40;;
71513;SDS011;59335;46.652;21.272;2022-12-07T10:24:00;11.45;;;5.53;;
71513;SDS011;59335;46.652;21.272;2022-12-07T10:27:18;15.00;;;6.03;;
71513;SDS011;59335;46.652;21.272;2022-12-07T10:30:24;11.85;;;5.43;;
71513;SDS011;59335;46.652;21.272;2022-12-07T10:37:16;12.57;;;5.53;;
71513;SDS011;59335;46.652;21.272;2022-12-07T10:40:34;12.30;;;5.90;;
71513;SDS011;59335;46.652;21.272;2022-12-07T10:43:46;11.50;;;6.30;;
71513;SDS011;59335;46.652;21.272;2022-12-07T11:11:53;12.43;;;6.43;;
71513;SDS011;59335;46.652;21.272;2022-12-07T11:15:12;16.75;;;6.88;;
71513;SDS011;59335;46.652;21.272;2022-12-07T11:18:24;12.33;;;6.33;;
71513;SDS011;59335;46.652;21.272;2022-12-07T11:28:57;12.80;;;5.95;;
71513;SDS011;59335;46.652;21.272;2022-12-07T11:35:40;13.83;;;6.00;;
71513;SDS011;59335;46.652;21.272;2022-12-07T11:42:01;10.85;;;6.00;;
71513;SDS011;59335;46.652;21.272;2022-12-07T11:45:19;16.17;;;6.22;;
71513;SDS011;59335;46.652;21.272;2022-12-07T11:48:33;14.02;;;5.88;;
71513;SDS011;59335;46.652;21.272;2022-12-07T11:51:41;15.03;;;5.90;;
71513;SDS011;59335;46.652;21.272;2022-12-07T11:54:46;13.48;;;5.90;;
71513;SDS011;59335;46.652;21.272;2022-12-07T11:58:04;13.18;;;5.78;;
71513;SDS011;59335;46.652;21.272;2022-12-07T12:04:47;13.98;;;5.97;;
71513;SDS011;59335;46.652;21.272;2022-12-07T12:08:03;12.77;;;5.80;;
71513;SDS011;59335;46.652;21.272;2022-12-07T12:23:11;13.10;;;5.68;;
71513;SDS011;59335;46.652;21.272;2022-12-07T12:26:21;12.63;;;5.27;;
71513;SDS011;59335;46.652;21.272;2022-12-07T12:29:27;12.93;;;5.70;;
71513;SDS011;59335;46.652;21.272;2022-12-07T12:32:39;14.48;;;6.30;;
71513;SDS011;59335;46.652;21.272;2022-12-07T12:35:43;13.50;;;5.38;;
71513;SDS011;59335;46.652;21.272;2022-12-07T12:39:07;12.73;;;5.50;;
71513;SDS011;59335;46.652;21.272;2022-12-07T12:42:18;13.63;;;5.20;;
71513;SDS011;59335;46.652;21.272;2022-12-07T12:45:25;15.80;;;5.47;;
71513;SDS011;59335;46.652;21.272;2022-12-07T12:48:35;12.52;;;5.40;;
71513;SDS011;59335;46.652;21.272;2022-12-07T12:51:40;10.68;;;5.50;;
71513;SDS011;59335;46.652;21.272;2022-12-07T12:54:59;12.43;;;6.18;;
71513;SDS011;59335;46.652;21.272;2022-12-07T13:04:48;13.25;;;5.47;;
71513;SDS011;59335;46.652;21.272;2022-12-07T13:11:16;15.23;;;5.47;;
71513;SDS011;59335;46.652;21.272;2022-12-07T13:14:44;11.53;;;4.80;;
71513;SDS011;59335;46.652;21.272;2022-12-07T13:17:58;13.05;;;5.03;;
71513;SDS011;59335;46.652;21.272;2022-12-07T13:24:10;12.68;;;5.18;;
71513;SDS011;59335;46.652;21.272;2022-12-07T13:27:15;13.93;;;5.75;;
71513;SDS011;59335;46.652;21.272;2022-12-07T13:30:20;11.63;;;5.10;;
71513;SDS011;59335;46.652;21.272;2022-12-07T13:33:24;14.05;;;5.10;;
71513;SDS011;59335;46.652;21.272;2022-12-07T13:36:33;13.90;;;4.93;;
71513;SDS011;59335;46.652;21.272;2022-12-07T13:43:00;17.25;;;5.10;;
71513;SDS011;59335;46.652;21.272;2022-12-07T13:46:08;10.73;;;5.27;;
71513;SDS011;59335;46.652;21.272;2022-12-07T13:49:23;12.68;;;5.10;;
71513;SDS011;59335;46.652;21.272;2022-12-07T13:52:31;11.82;;;4.90;;
71513;SDS011;59335;46.652;21.272;2022-12-07T13:55:34;13.63;;;4.88;;
71513;SDS011;59335;46.652;21.272;2022-12-07T13:58:38;13.65;;;5.50;;
71513;SDS011;59335;46.652;21.272;2022-12-07T14:01:42;15.63;;;5.73;;
71513;SDS011;59335;46.652;21.272;2022-12-07T14:04:49;12.65;;;4.80;;
71513;SDS011;59335;46.652;21.272;2022-12-07T14:08:00;11.35;;;4.85;;
71513;SDS011;59335;46.652;21.272;2022-12-07T14:11:04;16.17;;;4.72;;
71513;SDS011;59335;46.652;21.272;2022-12-07T14:14:10;11.30;;;4.97;;
71513;SDS011;59335;46.652;21.272;2022-12-07T14:17:22;10.27;;;4.90;;
71513;SDS011;59335;46.652;21.272;2022-12-07T14:20:36;15.70;;;5.45;;
71513;SDS011;59335;46.652;21.272;2022-12-07T14:23:41;14.73;;;5.20;;
71513;SDS011;59335;46.652;21.272;2022-12-07T14:26:47;12.10;;;4.70;;
71513;SDS011;59335;46.652;21.272;2022-12-07T14:29:52;11.35;;;4.60;;
71513;SDS011;59335;46.652;21.272;2022-12-07T14:33:00;11.73;;;5.10;;
71513;SDS011;59335;46.652;21.272;2022-12-07T14:36:06;11.57;;;4.55;;
71513;SDS011;59335;46.652;21.272;2022-12-07T14:39:11;13.30;;;4.80;;
71513;SDS011;59335;46.652;21.272;2022-12-07T14:42:15;12.02;;;4.97;;
71513;SDS011;59335;46.652;21.272;2022-12-07T14:45:21;12.02;;;5.10;;
71513;SDS011;59335;46.652;21.272;2022-12-07T14:48:25;16.87;;;4.83;;
71513;SDS011;59335;46.652;21.272;2022-12-07T14:51:47;10.40;;;4.85;;
71513;SDS011;59335;46.652;21.272;2022-12-07T14:55:14;11.63;;;4.88;;
71513;SDS011;59335;46.652;21.272;2022-12-07T14:58:23;13.35;;;4.93;;
71513;SDS011;59335;46.652;21.272;2022-12-07T15:01:25;18.58;;;5.35;;
71513;SDS011;59335;46.652;21.272;2022-12-07T15:04:28;14.43;;;5.10;;
71513;SDS011;59335;46.652;21.272;2022-12-07T15:07:31;13.50;;;4.88;;
71513;SDS011;59335;46.652;21.272;2022-12-07T15:10:34;12.88;;;5.15;;
71513;SDS011;59335;46.652;21.272;2022-12-07T15:13:40;16.75;;;5.05;;
71513;SDS011;59335;46.652;21.272;2022-12-07T15:17:02;12.10;;;4.90;;
71513;SDS011;59335;46.652;21.272;2022-12-07T15:20:13;12.63;;;4.80;;
71513;SDS011;59335;46.652;21.272;2022-12-07T15:23:17;12.55;;;5.13;;
71513;SDS011;59335;46.652;21.272;2022-12-07T15:26:19;14.68;;;5.20;;
71513;SDS011;59335;46.652;21.272;2022-12-07T15:29:22;12.20;;;5.30;;
71513;SDS011;59335;46.652;21.272;2022-12-07T15:32:25;12.43;;;4.82;;
71513;SDS011;59335;46.652;21.272;2022-12-07T15:35:28;9.73;;;4.37;;
71513;SDS011;59335;46.652;21.272;2022-12-07T15:38:31;11.32;;;5.00;;
71513;SDS011;59335;46.652;21.272;2022-12-07T15:41:55;12.70;;;5.22;;
71513;SDS011;59335;46.652;21.272;2022-12-07T15:44:59;14.40;;;4.95;;
71513;SDS011;59335;46.652;21.272;2022-12-07T15:48:07;13.73;;;5.05;;
71513;SDS011;59335;46.652;21.272;2022-12-07T15:51:29;14.17;;;5.10;;
71513;SDS011;59335;46.652;21.272;2022-12-07T15:54:32;13.32;;;4.90;;
71513;SDS011;59335;46.652;21.272;2022-12-07T15:57:37;10.90;;;4.57;;
71513;SDS011;59335;46.652;21.272;2022-12-07T16:00:40;11.88;;;5.10;;
71513;SDS011;59335;46.652;21.272;2022-12-07T16:03:43;14.52;;;5.22;;
71513;SDS011;59335;46.652;21.272;2022-12-07T16:06:47;13.53;;;5.60;;
71513;SDS011;59335;46.652;21.272;2022-12-07T16:09:49;10.52;;;5.25;;
71513;SDS011;59335;46.652;21.272;2022-12-07T16:12:53;13.45;;;5.50;;
71513;SDS011;59335;46.652;21.272;2022-12-07T16:15:57;10.93;;;5.50;;
71513;SDS011;59335;46.652;21.272;2022-12-07T16:18:59;10.15;;;5.25;;
71513;SDS011;59335;46.652;21.272;2022-12-07T16:22:03;16.30;;;6.83;;
71513;SDS011;59335;46.652;21.272;2022-12-07T16:25:06;15.80;;;6.85;;
71513;SDS011;59335;46.652;21.272;2022-12-07T16:28:09;25.52;;;7.75;;
71513;SDS011;59335;46.652;21.272;2022-12-07T16:31:13;19.63;;;8.85;;
71513;SDS011;59335;46.652;21.272;2022-12-07T16:34:18;22.33;;;8.55;;
71513;SDS011;59335;46.652;21.272;2022-12-07T16:37:21;21.57;;;7.27;;
71513;SDS011;59335;46.652;21.272;2022-12-07T16:40:24;19.10;;;6.80;;
71513;SDS011;59335;46.652;21.272;2022-12-07T16:43:28;15.65;;;6.30;;
71513;SDS011;59335;46.652;21.272;2022-12-07T16:46:34;13.48;;;6.68;;
71513;SDS011;59335;46.652;21.272;2022-12-07T16:49:38;19.98;;;7.18;;
71513;SDS011;59335;46.652;21.272;2022-12-07T16:52:43;16.73;;;7.27;;
71513;SDS011;59335;46.652;21.272;2022-12-07T16:55:46;14.88;;;6.90;;
71513;SDS011;59335;46.652;21.272;2022-12-07T16:58:49;18.25;;;7.18;;
71513;SDS011;59335;46.652;21.272;2022-12-07T17:01:52;15.23;;;6.88;;
71513;SDS011;59335;46.652;21.272;2022-12-07T17:04:57;19.15;;;7.20;;
71513;SDS011;59335;46.652;21.272;2022-12-07T17:08:01;16.50;;;7.23;;
71513;SDS011;59335;46.652;21.272;2022-12-07T17:11:10;18.58;;;7.20;;
71513;SDS011;59335;46.652;21.272;2022-12-07T17:14:19;17.77;;;7.20;;
71513;SDS011;59335;46.652;21.272;2022-12-07T17:17:40;15.93;;;6.65;;
71513;SDS011;59335;46.652;21.272;2022-12-07T17:20:43;16.27;;;6.75;;
71513;SDS011;59335;46.652;21.272;2022-12-07T17:23:47;17.70;;;6.93;;
71513;SDS011;59335;46.652;21.272;2022-12-07T17:26:50;16.90;;;7.63;;
71513;SDS011;59335;46.652;21.272;2022-12-07T17:29:53;16.60;;;6.88;;
71513;SDS011;59335;46.652;21.272;2022-12-07T17:32:56;15.88;;;6.65;;
71513;SDS011;59335;46.652;21.272;2022-12-07T17:35:59;18.73;;;7.00;;
71513;SDS011;59335;46.652;21.272;2022-12-07T17:39:06;17.07;;;7.27;;
71513;SDS011;59335;46.652;21.272;2022-12-07T17:42:13;15.80;;;7.18;;
71513;SDS011;59335;46.652;21.272;2022-12-07T17:45:35;15.65;;;7.50;;
71513;SDS011;59335;46.652;21.272;2022-12-07T17:48:40;15.88;;;7.88;;
71513;SDS011;59335;46.652;21.272;2022-12-07T17:51:42;15.82;;;7.47;;
71513;SDS011;59335;46.652;21.272;2022-12-07T17:55:04;22.17;;;7.67;;
71513;SDS011;59335;46.652;21.272;2022-12-07T17:58:08;14.55;;;7.82;;
71513;SDS011;59335;46.652;21.272;2022-12-07T18:01:11;16.02;;;8.38;;
71513;SDS011;59335;46.652;21.272;2022-12-07T18:04:14;18.33;;;7.53;;
71513;SDS011;59335;46.652;21.272;2022-12-07T18:07:17;15.05;;;8.25;;
71513;SDS011;59335;46.652;21.272;2022-12-07T18:10:20;17.40;;;8.20;;
71513;SDS011;59335;46.652;21.272;2022-12-07T18:13:25;16.05;;;7.82;;
71513;SDS011;59335;46.652;21.272;2022-12-07T18:16:38;17.02;;;8.40;;
71513;SDS011;59335;46.652;21.272;2022-12-07T18:19:42;23.77;;;8.68;;
71513;SDS011;59335;46.652;21.272;2022-12-07T18:22:52;19.38;;;9.35;;
71513;SDS011;59335;46.652;21.272;2022-12-07T18:25:55;16.90;;;8.07;;
71513;SDS011;59335;46.652;21.272;2022-12-07T18:28:59;17.52;;;8.45;;
71513;SDS011;59335;46.652;21.272;2022-12-07T18:32:03;20.45;;;9.63;;
71513;SDS011;59335;46.652;21.272;2022-12-07T18:35:08;20.70;;;9.15;;
71513;SDS011;59335;46.652;21.272;2022-12-07T18:38:15;17.67;;;9.25;;
71513;SDS011;59335;46.652;21.272;2022-12-07T18:41:21;15.43;;;8.90;;
71513;SDS011;59335;46.652;21.272;2022-12-07T18:44:24;19.77;;;9.23;;
71513;SDS011;59335;46.652;21.272;2022-12-07T18:47:27;17.45;;;8.85;;
71513;SDS011;59335;46.652;21.272;2022-12-07T18:50:30;18.77;;;9.07;;
71513;SDS011;59335;46.652;21.272;2022-12-07T18:53:35;18.10;;;8.73;;
71513;SDS011;59335;46.652;21.272;2022-12-07T18:56:39;17.67;;;8.47;;
71513;SDS011;59335;46.652;21.272;2022-12-07T18:59:43;18.67;;;9.15;;
71513;SDS011;59335;46.652;21.272;2022-12-07T19:02:48;15.35;;;9.13;;
71513;SDS011;59335;46.652;21.272;2022-12-07T19:05:53;15.18;;;8.45;;
71513;SDS011;59335;46.652;21.272;2022-12-07T19:08:59;17.10;;;9.07;;
71513;SDS011;59335;46.652;21.272;2022-12-07T19:12:03;14.03;;;8.50;;
71513;SDS011;59335;46.652;21.272;2022-12-07T19:15:08;18.65;;;9.35;;
71513;SDS011;59335;46.652;21.272;2022-12-07T19:18:16;17.75;;;9.30;;
71513;SDS011;59335;46.652;21.272;2022-12-07T19:21:19;14.68;;;8.88;;
71513;SDS011;59335;46.652;21.272;2022-12-07T19:24:23;16.58;;;9.10;;
71513;SDS011;59335;46.652;21.272;2022-12-07T19:27:27;18.20;;;9.00;;
71513;SDS011;59335;46.652;21.272;2022-12-07T19:30:32;15.77;;;9.30;;
71513;SDS011;59335;46.652;21.272;2022-12-07T19:33:36;17.15;;;9.68;;
71513;SDS011;59335;46.652;21.272;2022-12-07T19:36:40;19.38;;;9.20;;
71513;SDS011;59335;46.652;21.272;2022-12-07T19:39:45;17.27;;;9.55;;
71513;SDS011;59335;46.652;21.272;2022-12-07T19:42:53;15.57;;;9.40;;
71513;SDS011;59335;46.652;21.272;2022-12-07T19:46:02;16.13;;;9.02;;
71513;SDS011;59335;46.652;21.272;2022-12-07T19:49:09;18.15;;;9.35;;
71513;SDS011;59335;46.652;21.272;2022-12-07T19:52:16;17.33;;;9.18;;
71513;SDS011;59335;46.652;21.272;2022-12-07T19:55:19;15.32;;;8.70;;
71513;SDS011;59335;46.652;21.272;2022-12-07T19:58:23;14.60;;;9.50;;
71513;SDS011;59335;46.652;21.272;2022-12-07T20:01:28;18.10;;;9.90;;
71513;SDS011;59335;46.652;21.272;2022-12-07T20:04:32;17.05;;;9.80;;
71513;SDS011;59335;46.652;21.272;2022-12-07T20:07:37;17.98;;;8.80;;
71513;SDS011;59335;46.652;21.272;2022-12-07T20:10:41;14.07;;;9.20;;
71513;SDS011;59335;46.652;21.272;2022-12-07T20:13:44;15.97;;;8.90;;